Time;durP1;ratioP1;P1;durP2;ratioP2;P2;SDS_P1;SDS_P2;PMS_P1;PMS_P2;Temp;Humidity;BMP_temperature;BMP_pressure;BME280_temperature;BME280_humidity;BME280_pressure;Samples;Min_cycle;Max_cycle;Signal;HPM_P1;HPM_P2
2021/11/25 00:00:07;;;;;;;34.65;12.88;;;4.60;99.90;;;;;;5072132;28;20032;-63
2021/11/25 00:02:32;;;;;;;19.27;10.32;;;4.40;99.90;;;;;;5071772;28;20028;-64
2021/11/25 00:04:58;;;;;;;28.80;10.35;;;4.20;99.90;;;;;;5070698;28;20028;-64
2021/11/25 00:07:23;;;;;;;33.13;9.73;;;4.10;99.90;;;;;;5071880;28;20025;-64
2021/11/25 00:09:50;;;;;;;30.50;9.85;;;4.10;99.90;;;;;;5071909;28;20037;-64
2021/11/25 00:12:16;;;;;;;16.30;9.85;;;4.20;99.90;;;;;;5074328;28;20013;-63
2021/11/25 00:14:41;;;;;;;18.67;8.82;;;4.30;99.90;;;;;;5075438;28;20047;-63
2021/11/25 00:17:07;;;;;;;15.93;8.40;;;4.30;99.90;;;;;;5073977;28;20051;-64
2021/11/25 00:20:05;;;;;;;;;;;;;;;;;;;;;
2021/11/25 00:22:31;;;;;;;17.98;7.85;;;4.20;99.90;;;;;;5075370;28;20486;-63
2021/11/25 00:24:57;;;;;;;24.98;7.15;;;4.20;99.90;;;;;;5075245;28;20099;-63
2021/11/25 00:27:23;;;;;;;12.75;7.50;;;4.20;99.90;;;;;;5074137;28;20494;-64
2021/11/25 00:29:48;;;;;;;21.77;8.13;;;4.20;99.90;;;;;;5075158;28;20107;-64
2021/11/25 00:32:14;;;;;;;19.35;7.32;;;4.20;99.90;;;;;;5074894;28;20103;-64
2021/11/25 00:34:40;;;;;;;25.63;8.07;;;4.20;99.90;;;;;;5075111;28;20494;-63
2021/11/25 00:37:06;;;;;;;16.25;8.27;;;4.20;99.90;;;;;;5075170;28;20039;-63
2021/11/25 00:39:31;;;;;;;12.93;6.88;;;4.20;99.90;;;;;;5074926;28;20052;-63
2021/11/25 00:41:57;;;;;;;13.68;7.82;;;4.20;99.90;;;;;;5075062;28;20028;-63
2021/11/25 00:44:22;;;;;;;19.35;7.57;;;4.10;99.90;;;;;;5075044;28;20031;-63
2021/11/25 00:46:48;;;;;;;20.40;6.82;;;4.10;99.90;;;;;;5074454;28;20057;-63
2021/11/25 00:49:13;;;;;;;19.15;6.68;;;4.10;99.90;;;;;;5073528;28;20450;-63
2021/11/25 00:51:39;;;;;;;14.88;6.40;;;4.10;99.90;;;;;;5074919;28;20437;-63
2021/11/25 00:54:04;;;;;;;25.88;7.28;;;4.00;99.90;;;;;;5074966;28;20058;-63
2021/11/25 00:56:30;;;;;;;15.10;6.88;;;4.00;99.90;;;;;;5074676;28;20068;-63
2021/11/25 00:58:56;;;;;;;12.60;6.32;;;4.00;99.90;;;;;;5074798;28;20036;-63
2021/11/25 01:01:21;;;;;;;10.68;8.55;;;4.00;99.90;;;;;;5075029;28;20028;-63
2021/11/25 01:03:47;;;;;;;16.95;9.68;;;3.90;99.90;;;;;;5074444;28;20054;-63
2021/11/25 01:06:12;;;;;;;19.90;9.15;;;3.70;99.90;;;;;;5074567;28;20032;-63
2021/11/25 01:08:38;;;;;;;15.90;8.30;;;3.50;99.90;;;;;;5074543;28;20025;-63
2021/11/25 01:11:05;;;;;;;18.50;7.47;;;3.50;99.90;;;;;;5074403;28;20466;-63
2021/11/25 01:13:31;;;;;;;13.95;7.55;;;3.50;99.90;;;;;;5074370;28;20533;-63
2021/11/25 01:15:56;;;;;;;12.75;6.97;;;3.50;99.90;;;;;;5074201;28;20025;-63
2021/11/25 01:18:23;;;;;;;14.52;6.25;;;3.50;99.90;;;;;;5074411;28;20440;-63
2021/11/25 01:20:50;;;;;;;9.48;6.03;;;3.50;99.90;;;;;;5074183;28;20036;-63
2021/11/25 01:23:19;;;;;;;12.30;6.70;;;3.50;99.90;;;;;;5072820;28;20472;-63
2021/11/25 01:25:45;;;;;;;9.07;7.20;;;3.50;99.90;;;;;;5074077;28;20060;-63
2021/11/25 01:28:14;;;;;;;10.07;6.78;;;3.40;99.90;;;;;;5072929;28;20083;-63
2021/11/25 01:30:42;;;;;;;7.45;5.72;;;3.30;99.90;;;;;;5072638;28;20116;-63
2021/11/25 01:33:08;;;;;;;7.45;5.85;;;3.30;99.90;;;;;;5073798;28;20020;-63
2021/11/25 01:35:35;;;;;;;7.25;5.32;;;3.40;99.90;;;;;;5073848;28;20138;-63
2021/11/25 01:38:00;;;;;;;6.95;5.53;;;3.40;99.90;;;;;;5072774;28;20020;-63
2021/11/25 01:40:26;;;;;;;6.55;5.40;;;3.40;99.90;;;;;;5073823;28;20420;-63
2021/11/25 01:42:52;;;;;;;6.20;4.82;;;3.50;99.90;;;;;;5073728;28;20032;-63
2021/11/25 01:45:18;;;;;;;5.80;4.53;;;3.50;99.90;;;;;;5072541;28;20107;-63
2021/11/25 01:47:45;;;;;;;7.82;5.20;;;3.50;99.90;;;;;;5073456;28;20457;-63
2021/11/25 01:50:13;;;;;;;6.22;4.32;;;3.50;99.90;;;;;;5073793;28;20082;-63
2021/11/25 01:52:39;;;;;;;7.32;5.20;;;3.60;99.90;;;;;;5073582;28;20020;-63
2021/11/25 01:55:05;;;;;;;6.82;5.35;;;3.60;99.90;;;;;;5073556;28;20058;-63
2021/11/25 01:57:30;;;;;;;6.82;5.07;;;3.60;99.90;;;;;;5072169;28;20476;-63
2021/11/25 01:59:56;;;;;;;7.95;5.35;;;3.60;99.90;;;;;;5073393;28;20025;-63
2021/11/25 02:02:22;;;;;;;8.38;5.70;;;3.70;99.90;;;;;;5073490;28;20468;-63
2021/11/25 02:04:47;;;;;;;8.82;6.20;;;3.60;99.90;;;;;;5071934;28;20021;-63
2021/11/25 02:07:13;;;;;;;10.20;6.75;;;3.70;99.90;;;;;;5073287;28;20438;-63
2021/11/25 02:09:38;;;;;;;11.10;6.93;;;3.70;99.90;;;;;;5073274;28;20512;-63
2021/11/25 02:12:04;;;;;;;9.65;6.75;;;3.70;99.90;;;;;;5073150;28;20060;-63
2021/11/25 02:14:30;;;;;;;10.02;6.97;;;3.60;99.90;;;;;;5073257;28;20047;-63
2021/11/25 02:16:56;;;;;;;8.57;6.22;;;3.60;99.90;;;;;;5073118;28;20528;-63
2021/11/25 02:19:22;;;;;;;9.05;5.88;;;3.60;99.90;;;;;;5073062;28;20078;-63
2021/11/25 02:21:48;;;;;;;16.15;10.70;;;3.60;99.90;;;;;;5071831;28;20064;-63
2021/11/25 02:24:14;;;;;;;19.33;12.80;;;3.50;99.90;;;;;;5071880;28;20035;-63
2021/11/25 02:26:39;;;;;;;21.55;13.75;;;3.50;99.90;;;;;;5072889;28;20482;-63
2021/11/25 02:29:05;;;;;;;20.58;12.27;;;3.40;99.90;;;;;;5073048;28;20031;-63
2021/11/25 02:31:31;;;;;;;23.83;13.25;;;3.50;99.90;;;;;;5072897;28;20040;-63
2021/11/25 02:33:56;;;;;;;29.80;16.80;;;3.50;99.90;;;;;;5070981;28;20396;-63
2021/11/25 02:36:22;;;;;;;20.25;13.13;;;3.40;99.90;;;;;;5071597;28;20081;-63
2021/11/25 02:38:47;;;;;;;16.67;10.98;;;3.40;99.90;;;;;;5072895;28;20032;-63
2021/11/25 02:41:13;;;;;;;13.80;9.80;;;3.40;99.90;;;;;;5071507;28;20039;-63
2021/11/25 02:43:39;;;;;;;12.50;8.45;;;3.40;99.90;;;;;;5052617;28;20029;-63
2021/11/25 02:46:08;;;;;;;9.82;6.82;;;3.50;99.90;;;;;;5052693;28;20035;-63
2021/11/25 02:48:48;;;;;;;11.77;7.73;;;3.50;99.90;;;;;;5052802;28;20028;-64
2021/11/25 02:51:19;;;;;;;10.32;6.78;;;3.40;99.90;;;;;;5052621;28;20477;-63
2021/11/25 02:53:45;;;;;;;22.73;14.57;;;3.50;99.90;;;;;;5052557;28;20105;-63
2021/11/25 02:56:17;;;;;;;33.90;19.65;;;3.40;99.90;;;;;;5052662;28;20476;-63
2021/11/25 02:58:44;;;;;;;30.33;18.23;;;3.40;99.90;;;;;;5052671;28;20052;-63
2021/11/25 03:01:20;;;;;;;29.00;17.75;;;3.20;99.90;;;;;;5052639;28;20032;-63
2021/11/25 03:03:46;;;;;;;34.22;20.42;;;3.20;99.90;;;;;;5052549;28;20086;-63
2021/11/25 03:06:13;;;;;;;32.03;19.65;;;3.20;99.90;;;;;;5052407;28;20029;-63
2021/11/25 03:08:39;;;;;;;34.67;21.25;;;3.30;99.90;;;;;;5051843;28;20032;-63
2021/11/25 03:11:08;;;;;;;31.35;18.55;;;3.20;99.90;;;;;;5052501;28;20025;-63
2021/11/25 03:13:35;;;;;;;28.58;17.13;;;3.20;99.90;;;;;;5052531;28;20026;-63
2021/11/25 03:16:02;;;;;;;22.65;13.93;;;3.30;99.90;;;;;;5072572;28;20480;-63
2021/11/25 03:18:29;;;;;;;19.73;12.63;;;3.30;99.90;;;;;;5072491;28;20028;-63
2021/11/25 03:20:56;;;;;;;17.17;11.52;;;3.30;99.90;;;;;;5072254;28;20021;-63
2021/11/25 03:23:25;;;;;;;23.65;15.20;;;3.40;99.90;;;;;;5072451;28;20505;-63
2021/11/25 03:25:53;;;;;;;22.13;13.85;;;3.40;99.90;;;;;;5072342;28;20025;-63
2021/11/25 03:28:19;;;;;;;26.33;16.77;;;3.40;99.90;;;;;;5071844;28;20024;-63
2021/11/25 03:30:53;;;;;;;27.85;17.95;;;3.30;99.90;;;;;;5071955;28;20024;-63
2021/11/25 03:33:19;;;;;;;27.40;15.93;;;3.30;99.90;;;;;;5071193;28;20056;-63
2021/11/25 03:35:44;;;;;;;23.02;14.50;;;3.20;99.90;;;;;;5071800;28;20067;-63
2021/11/25 03:38:21;;;;;;;20.60;13.30;;;3.20;99.90;;;;;;5072350;28;20036;-63
2021/11/25 03:40:47;;;;;;;23.83;13.68;;;3.30;99.90;;;;;;5072208;28;20059;-63
2021/11/25 03:43:13;;;;;;;26.40;16.85;;;3.30;99.90;;;;;;5071249;28;20040;-63
2021/11/25 03:45:39;;;;;;;30.92;19.30;;;3.30;99.90;;;;;;5070786;28;20031;-63
2021/11/25 03:48:05;;;;;;;26.13;16.35;;;3.30;99.90;;;;;;5075623;28;20041;-63
2021/11/25 03:50:31;;;;;;;23.13;14.82;;;3.20;99.90;;;;;;5075786;28;20127;-63
2021/11/25 03:52:56;;;;;;;22.48;13.77;;;3.20;99.90;;;;;;5075869;28;20090;-63
2021/11/25 03:55:22;;;;;;;18.45;12.05;;;3.20;99.90;;;;;;5074640;28;20021;-63
2021/11/25 03:57:49;;;;;;;18.55;10.63;;;3.30;99.90;;;;;;5075739;28;20028;-63
2021/11/25 04:00:17;;;;;;;18.70;11.40;;;3.40;99.90;;;;;;5075896;28;20472;-63
2021/11/25 04:02:44;;;;;;;17.08;10.65;;;3.40;99.90;;;;;;5075559;28;20032;-63
2021/11/25 04:05:11;;;;;;;15.98;10.15;;;3.40;99.90;;;;;;5075774;28;20029;-63
2021/11/25 04:07:37;;;;;;;16.23;10.30;;;3.40;99.90;;;;;;5075385;28;20028;-63
2021/11/25 04:10:04;;;;;;;14.60;9.60;;;3.50;99.90;;;;;;5075810;28;20111;-63
2021/11/25 04:12:30;;;;;;;17.88;11.52;;;3.50;99.90;;;;;;5075365;28;20519;-63
2021/11/25 04:14:55;;;;;;;32.75;18.60;;;3.60;99.90;;;;;;5075517;28;20028;-63
2021/11/25 04:17:21;;;;;;;30.30;18.88;;;3.50;99.90;;;;;;5075374;28;20025;-63
2021/11/25 04:19:48;;;;;;;26.75;16.65;;;3.50;99.90;;;;;;5075361;28;20088;-63
2021/11/25 04:22:14;;;;;;;27.23;15.68;;;3.50;99.90;;;;;;5075279;28;20142;-63
2021/11/25 04:24:39;;;;;;;25.65;15.18;;;3.50;99.90;;;;;;5075264;28;20100;-63
2021/11/25 04:27:05;;;;;;;26.65;16.77;;;3.50;99.90;;;;;;5074063;28;20056;-63
2021/11/25 04:29:31;;;;;;;29.80;18.52;;;3.50;99.90;;;;;;5073968;28;20029;-63
2021/11/25 04:37:25;;;;;;;24.77;14.10;;;3.50;99.90;;;;;;5074988;28;20035;-63
2021/11/25 04:40:04;;;;;;;20.85;13.70;;;3.60;99.90;;;;;;5075101;28;20033;-63
2021/11/25 04:42:29;;;;;;;18.73;13.13;;;3.60;99.90;;;;;;5073537;28;20033;-63
2021/11/25 04:44:55;;;;;;;19.73;13.25;;;3.70;99.90;;;;;;5073933;28;20028;-63
2021/11/25 04:47:20;;;;;;;19.02;12.25;;;3.70;99.90;;;;;;5074747;28;20040;-63
2021/11/25 04:49:46;;;;;;;18.92;12.55;;;3.70;99.90;;;;;;5074916;28;20047;-63
2021/11/25 04:55:23;;;;;;;17.42;11.43;;;3.70;99.90;;;;;;5073280;28;20055;-63
2021/11/25 04:57:49;;;;;;;20.33;12.80;;;3.70;99.90;;;;;;5073058;28;20468;-63
2021/11/25 05:00:15;;;;;;;21.98;13.05;;;3.80;99.90;;;;;;5074804;28;20054;-63
2021/11/25 05:02:41;;;;;;;34.45;21.08;;;3.80;99.90;;;;;;5074558;28;20039;-63
2021/11/25 05:05:07;;;;;;;34.17;20.90;;;3.80;99.90;;;;;;5074558;28;20020;-63
2021/11/25 05:07:32;;;;;;;30.08;18.77;;;3.70;99.90;;;;;;5074207;28;20031;-63
2021/11/25 05:09:58;;;;;;;34.50;20.52;;;3.70;99.90;;;;;;5074551;28;20016;-63
2021/11/25 05:12:24;;;;;;;36.92;23.40;;;3.60;99.90;;;;;;5074441;28;20032;-63
2021/11/25 05:14:50;;;;;;;41.17;24.80;;;3.60;99.90;;;;;;5074327;28;20036;-63
2021/11/25 05:17:15;;;;;;;42.75;26.58;;;3.50;99.90;;;;;;5074268;28;20020;-63
2021/11/25 05:19:41;;;;;;;38.63;25.02;;;3.50;99.90;;;;;;5074187;28;20028;-63
2021/11/25 05:22:06;;;;;;;40.55;24.85;;;3.40;99.90;;;;;;5074292;28;20103;-63
2021/11/25 05:24:32;;;;;;;40.78;27.17;;;3.40;99.90;;;;;;5073973;28;20107;-63
2021/11/25 05:26:58;;;;;;;42.67;27.45;;;3.50;99.90;;;;;;5074244;28;20025;-63
2021/11/25 05:29:23;;;;;;;43.58;26.50;;;3.50;99.90;;;;;;5074050;28;20028;-63
2021/11/25 05:31:50;;;;;;;38.10;23.27;;;3.50;99.90;;;;;;5074087;28;20026;-63
2021/11/25 05:34:18;;;;;;;34.67;21.45;;;3.50;99.90;;;;;;5073800;28;20017;-63
2021/11/25 05:36:45;;;;;;;29.95;19.98;;;3.50;99.90;;;;;;5073918;28;20130;-63
2021/11/25 05:39:12;;;;;;;30.23;19.55;;;3.60;99.90;;;;;;5073752;28;20473;-63
2021/11/25 05:41:39;;;;;;;28.92;19.35;;;3.60;99.90;;;;;;5073969;28;20051;-63
2021/11/25 05:44:06;;;;;;;35.78;21.40;;;3.70;99.90;;;;;;5073869;28;20052;-63
2021/11/25 05:46:31;;;;;;;38.22;23.52;;;3.70;99.90;;;;;;5073354;28;20053;-63
2021/11/25 05:48:57;;;;;;;34.80;21.70;;;3.70;99.90;;;;;;5073574;28;20029;-63
2021/11/25 05:51:23;;;;;;;29.85;18.38;;;3.70;99.90;;;;;;5073760;28;20137;-63
2021/11/25 05:53:48;;;;;;;28.63;18.60;;;3.80;99.90;;;;;;5072065;28;20029;-63
2021/11/25 05:56:14;;;;;;;28.98;17.58;;;3.80;99.90;;;;;;5072334;28;20021;-63
2021/11/25 05:58:40;;;;;;;25.35;17.13;;;3.80;99.90;;;;;;5073529;28;20090;-63
2021/11/25 06:01:06;;;;;;;25.40;16.80;;;3.90;99.90;;;;;;5073590;28;20083;-63
2021/11/25 06:03:31;;;;;;;28.05;16.88;;;3.90;99.90;;;;;;5073129;28;20431;-63
2021/11/25 06:05:57;;;;;;;42.67;26.38;;;4.00;99.90;;;;;;5073446;28;20035;-63
2021/11/25 06:08:23;;;;;;;47.55;30.33;;;4.00;99.90;;;;;;5072773;28;20472;-63
2021/11/25 06:10:48;;;;;;;48.20;31.73;;;3.90;99.90;;;;;;5072979;28;20432;-63
2021/11/25 06:13:14;;;;;;;54.65;34.08;;;3.80;99.90;;;;;;5073206;28;20103;-63
2021/11/25 06:15:39;;;;;;;50.80;30.92;;;3.70;99.90;;;;;;5073180;28;20115;-63
2021/11/25 06:18:05;;;;;;;56.05;33.95;;;3.60;99.90;;;;;;5072878;28;20029;-63
2021/11/25 06:20:30;;;;;;;56.88;34.72;;;3.60;99.90;;;;;;5073148;28;20155;-63
2021/11/25 06:22:56;;;;;;;61.05;36.75;;;3.60;99.90;;;;;;5073089;28;20177;-63
2021/11/25 06:25:24;;;;;;;61.75;35.63;;;3.50;99.90;;;;;;5073005;28;20043;-63
2021/11/25 06:27:49;;;;;;;62.47;36.83;;;3.50;99.90;;;;;;5071405;28;20025;-63
2021/11/25 06:30:15;;;;;;;65.97;39.30;;;3.50;99.90;;;;;;5073145;28;20032;-63
2021/11/25 06:32:44;;;;;;;62.63;37.22;;;3.50;99.90;;;;;;5072899;28;20028;-63
2021/11/25 06:35:11;;;;;;;57.53;35.90;;;3.50;99.90;;;;;;5072869;28;20017;-63
2021/11/25 06:37:44;;;;;;;58.65;34.33;;;3.50;99.90;;;;;;5072559;28;20021;-63
2021/11/25 06:40:10;;;;;;;62.63;35.30;;;3.50;99.90;;;;;;5068916;28;20017;-63
2021/11/25 06:42:36;;;;;;;60.05;35.75;;;3.60;99.90;;;;;;5056773;28;20543;-63
2021/11/25 06:45:02;;;;;;;63.28;38.20;;;3.60;99.90;;;;;;5054549;28;20025;-63
2021/11/25 06:47:28;;;;;;;57.80;35.63;;;3.70;99.90;;;;;;5059249;28;20056;-63
2021/11/25 06:49:53;;;;;;;61.30;37.28;;;3.70;99.90;;;;;;5062463;28;20027;-63
2021/11/25 06:52:19;;;;;;;63.60;36.47;;;3.70;99.90;;;;;;5059469;28;20061;-63
2021/11/25 06:54:44;;;;;;;58.97;36.45;;;3.70;99.90;;;;;;5058840;28;20029;-63
2021/11/25 06:57:10;;;;;;;60.95;37.13;;;3.70;99.90;;;;;;5054588;28;20023;-63
2021/11/25 06:59:36;;;;;;;58.55;35.20;;;3.80;99.90;;;;;;5060067;28;20473;-63
2021/11/25 07:02:04;;;;;;;59.53;35.47;;;3.80;99.90;;;;;;5060198;28;20032;-63
2021/11/25 07:04:29;;;;;;;54.97;33.88;;;3.80;99.90;;;;;;5062513;28;20115;-64
2021/11/25 07:06:55;;;;;;;54.58;33.33;;;3.80;99.90;;;;;;5060275;28;20163;-63
2021/11/25 07:09:20;;;;;;;54.50;34.72;;;3.80;99.90;;;;;;5061228;28;20024;-63
2021/11/25 07:11:46;;;;;;;58.60;35.67;;;3.90;99.90;;;;;;5061726;28;20481;-63
2021/11/25 07:14:40;;;;;;;57.47;33.97;;;3.90;99.90;;;;;;5056832;28;20020;-63
2021/11/25 07:17:06;;;;;;;54.53;32.75;;;3.90;99.90;;;;;;5062720;28;20074;-63
2021/11/25 07:20:12;;;;;;;;;;;;;;;;;;;;;
2021/11/25 07:22:38;;;;;;;51.92;31.42;;;3.90;99.90;;;;;;5066088;28;20027;-63
2021/11/25 07:25:06;;;;;;;45.63;28.92;;;3.90;99.90;;;;;;5060361;28;20104;-63
2021/11/25 07:27:31;;;;;;;51.63;30.25;;;3.90;99.90;;;;;;5067194;28;20400;-63
2021/11/25 07:30:15;;;;;;;54.20;33.60;;;3.90;99.90;;;;;;5064374;28;20019;-63
2021/11/25 07:32:41;;;;;;;56.58;35.58;;;4.00;99.90;;;;;;5059494;28;20092;-63
2021/11/25 07:35:23;;;;;;;52.30;33.28;;;4.00;99.90;;;;;;5063004;28;20107;-63
2021/11/25 07:37:52;;;;;;;48.85;30.08;;;3.90;99.90;;;;;;5062942;28;20064;-63
2021/11/25 07:40:19;;;;;;;54.65;32.67;;;4.00;99.90;;;;;;5065136;28;20082;-64
2021/11/25 07:42:45;;;;;;;46.65;31.10;;;4.00;99.90;;;;;;5060261;28;20017;-63
2021/11/25 07:45:44;;;;;;;50.22;32.47;;;4.00;99.90;;;;;;5068264;28;20091;-63
2021/11/25 07:48:10;;;;;;;46.72;30.17;;;4.00;99.90;;;;;;5057212;28;20098;-63
2021/11/25 07:50:59;;;;;;;;;;;;;;;;;;;;;
2021/11/25 07:53:25;;;;;;;46.15;29.00;;;4.00;99.90;;;;;;5062803;28;20027;-63
2021/11/25 07:55:58;;;;;;;45.78;29.55;;;4.00;99.90;;;;;;5064921;28;20096;-63
2021/11/25 07:58:23;;;;;;;49.03;30.63;;;4.10;99.90;;;;;;5059936;28;20016;-63
2021/11/25 08:00:50;;;;;;;50.25;32.88;;;4.10;99.90;;;;;;5068011;28;20029;-63
2021/11/25 08:03:15;;;;;;;54.78;34.05;;;4.10;99.90;;;;;;5060830;28;20122;-63
2021/11/25 08:05:41;;;;;;;55.78;36.97;;;4.10;99.90;;;;;;5064496;28;20563;-63
2021/11/25 08:08:09;;;;;;;51.97;33.00;;;4.10;99.90;;;;;;5073774;28;20029;-62
2021/11/25 08:10:35;;;;;;;52.13;33.95;;;4.10;99.90;;;;;;5062977;28;20020;-63
2021/11/25 08:13:03;;;;;;;50.67;34.70;;;4.20;99.90;;;;;;5054964;28;20021;-63
2021/11/25 08:15:38;;;;;;;48.45;32.78;;;4.20;99.90;;;;;;5055299;28;20028;-63
2021/11/25 08:18:04;;;;;;;48.08;32.60;;;4.20;99.90;;;;;;5062174;28;20036;-63
2021/11/25 08:20:51;;;;;;;;;;;;;;;;;;;;;
2021/11/25 08:27:13;;;;;;;;;;;;;;;;;;;;;
2021/11/25 08:29:39;;;;;;;52.10;33.65;;;4.30;99.90;;;;;;5061951;28;20020;-63
2021/11/25 08:32:04;;;;;;;46.10;32.63;;;4.30;99.90;;;;;;5061139;28;20115;-63
2021/11/25 08:34:40;;;;;;;49.10;32.63;;;4.30;99.90;;;;;;5058713;28;20432;-63
2021/11/25 08:37:06;;;;;;;47.08;32.42;;;4.40;99.90;;;;;;5053728;28;20021;-63
2021/11/25 08:39:33;;;;;;;47.97;32.20;;;4.40;99.90;;;;;;5058012;28;20024;-63
2021/11/25 08:41:59;;;;;;;46.65;30.48;;;4.50;99.90;;;;;;5066540;28;20051;-63
2021/11/25 08:44:25;;;;;;;46.30;32.55;;;4.40;99.90;;;;;;5056279;28;20067;-63
2021/11/25 08:46:51;;;;;;;47.05;32.85;;;4.50;99.90;;;;;;5052597;28;20056;-63
2021/11/25 08:49:39;;;;;;;44.75;31.50;;;4.50;99.90;;;;;;5054330;28;20036;-63
2021/11/25 08:52:05;;;;;;;46.42;31.75;;;4.50;99.90;;;;;;5054813;28;20048;-63
2021/11/25 08:54:31;;;;;;;45.80;32.08;;;4.50;99.90;;;;;;5054037;28;20025;-63
2021/11/25 08:56:57;;;;;;;47.22;32.78;;;4.50;99.90;;;;;;5054554;28;20025;-63
2021/11/25 08:59:22;;;;;;;46.58;33.17;;;4.50;99.90;;;;;;5054727;28;20021;-63
2021/11/25 09:01:49;;;;;;;41.88;29.80;;;4.60;99.90;;;;;;5054671;28;20396;-63
2021/11/25 09:04:24;;;;;;;40.50;29.17;;;4.60;99.90;;;;;;5054086;28;20036;-62
2021/11/25 09:06:49;;;;;;;44.17;31.10;;;4.60;99.90;;;;;;5054263;28;20103;-63
2021/11/25 09:09:15;;;;;;;44.10;30.70;;;4.60;99.90;;;;;;5054498;28;20072;-63
2021/11/25 09:11:42;;;;;;;44.20;30.40;;;4.60;99.90;;;;;;5078818;28;20107;-62
2021/11/25 09:14:07;;;;;;;43.38;30.35;;;4.60;99.90;;;;;;5084962;28;20151;-62
2021/11/25 09:16:33;;;;;;;38.95;28.40;;;4.60;99.90;;;;;;5083795;28;20521;-62
2021/11/25 09:19:00;;;;;;;38.83;28.30;;;4.60;99.90;;;;;;5078346;28;20025;-63
2021/11/25 09:21:29;;;;;;;40.80;28.65;;;4.70;99.90;;;;;;5076729;28;20023;-62
2021/11/25 09:23:54;;;;;;;36.13;27.73;;;4.70;99.90;;;;;;5086742;28;20048;-62
2021/11/25 09:26:20;;;;;;;41.75;29.15;;;4.70;99.90;;;;;;5074719;28;20032;-63
2021/11/25 09:29:20;;;;;;;;;;;;;;;;;;;;;
2021/11/25 09:32:16;;;;;;;38.33;27.65;;;4.80;99.90;;;;;;5061827;28;20403;-63
2021/11/25 09:34:42;;;;;;;37.30;26.58;;;4.80;99.90;;;;;;5079417;28;20115;-63
2021/11/25 09:37:08;;;;;;;36.10;26.98;;;4.80;99.90;;;;;;5090218;28;20102;-62
2021/11/25 09:39:36;;;;;;;36.67;26.42;;;4.80;99.90;;;;;;5076119;28;20103;-63
2021/11/25 09:42:02;;;;;;;37.38;27.00;;;4.80;99.90;;;;;;5085698;28;20048;-62
2021/11/25 09:44:27;;;;;;;39.30;27.17;;;4.80;99.90;;;;;;5084113;28;20054;-63
2021/11/25 09:46:56;;;;;;;40.47;25.98;;;4.80;99.90;;;;;;5076913;28;20439;-63
2021/11/25 09:49:25;;;;;;;34.95;26.65;;;4.80;99.90;;;;;;5090873;28;20448;-63
2021/11/25 09:51:51;;;;;;;36.58;25.40;;;4.80;99.90;;;;;;5086971;28;20031;-63
2021/11/25 09:54:50;;;;;;;33.15;25.38;;;4.80;99.90;;;;;;5082908;28;20065;-63
2021/11/25 09:57:15;;;;;;;34.80;24.65;;;4.80;99.90;;;;;;5067993;28;20021;-63
2021/11/25 09:59:41;;;;;;;29.65;22.33;;;4.80;99.90;;;;;;5088097;28;20218;-62
2021/11/25 10:02:06;;;;;;;32.35;22.38;;;4.80;99.90;;;;;;5080460;28;20108;-63
2021/11/25 10:04:32;;;;;;;30.63;21.17;;;4.90;99.90;;;;;;5078432;28;20404;-63
2021/11/25 10:07:01;;;;;;;25.35;19.13;;;4.90;99.90;;;;;;5087540;28;20031;-63
2021/11/25 10:09:45;;;;;;;27.15;18.48;;;5.00;99.90;;;;;;5076329;28;20032;-63
2021/11/25 10:12:32;;;;;;;26.90;20.13;;;5.00;99.90;;;;;;5084105;28;20107;-63
2021/11/25 10:15:00;;;;;;;30.83;21.38;;;5.00;99.90;;;;;;5088258;28;20019;-63
2021/11/25 10:17:46;;;;;;;29.67;21.15;;;5.00;99.90;;;;;;5076052;28;20039;-63
2021/11/25 10:20:15;;;;;;;32.30;21.60;;;5.10;99.90;;;;;;5072888;28;20027;-63
2021/11/25 10:23:01;;;;;;;29.48;20.42;;;5.10;99.90;;;;;;5086208;28;20032;-63
2021/11/25 10:25:44;;;;;;;33.50;21.75;;;5.20;99.90;;;;;;5075849;28;20012;-63
2021/11/25 10:28:17;;;;;;;36.08;22.40;;;5.20;99.90;;;;;;5083589;28;20025;-63
2021/11/25 10:30:42;;;;;;;31.38;19.73;;;5.20;99.90;;;;;;5086213;28;20472;-63
2021/11/25 10:33:08;;;;;;;35.40;21.95;;;5.20;99.90;;;;;;5075494;28;20035;-63
2021/11/25 10:35:48;;;;;;;40.00;26.00;;;5.30;99.90;;;;;;5071537;28;20024;-63
2021/11/25 10:40:42;;;;;;;41.88;26.70;;;5.30;99.90;;;;;;5065338;28;21261;-63
2021/11/25 10:43:25;;;;;;;39.55;25.42;;;5.30;99.90;;;;;;5074097;28;20037;-63
2021/11/25 10:46:06;;;;;;;37.78;24.38;;;5.30;99.90;;;;;;5085656;28;20396;-64
2021/11/25 10:48:38;;;;;;;39.25;25.15;;;5.30;99.90;;;;;;5084198;28;20044;-63
2021/11/25 10:51:27;;;;;;;36.20;24.00;;;5.40;99.90;;;;;;5075384;28;20382;-63
2021/11/25 10:54:10;;;;;;;44.00;27.95;;;5.50;99.90;;;;;;5065396;28;20486;-63
2021/11/25 10:56:43;;;;;;;35.25;23.65;;;5.50;99.90;;;;;;5090138;28;20414;-63
2021/11/25 11:02:02;;;;;;;41.97;26.75;;;5.70;99.90;;;;;;5070215;28;20078;-63
2021/11/25 11:04:29;;;;;;;37.78;25.80;;;5.80;99.90;;;;;;5067664;28;20020;-64
2021/11/25 11:06:55;;;;;;;37.45;23.85;;;5.90;99.90;;;;;;5070503;28;20541;-63
2021/11/25 11:09:44;;;;;;;38.70;25.63;;;6.00;99.90;;;;;;5053402;28;20052;-63
2021/11/25 11:12:47;;;;;;;49.58;32.05;;;6.00;99.90;;;;;;5070400;28;20039;-64
2021/11/25 11:18:00;;;;;;;42.42;26.77;;;6.00;99.90;;;;;;5068490;28;20021;-63
2021/11/25 11:20:59;;;;;;;47.63;31.70;;;6.10;99.90;;;;;;5070124;28;20070;-64
2021/11/25 11:23:25;;;;;;;51.73;30.17;;;6.10;99.90;;;;;;5065712;28;20036;-63
2021/11/25 11:25:54;;;;;;;50.50;31.38;;;6.10;99.90;;;;;;5070486;28;20028;-63
2021/11/25 11:28:20;;;;;;;51.75;32.47;;;6.10;99.90;;;;;;5063340;28;20029;-63
2021/11/25 11:30:46;;;;;;;50.35;31.70;;;6.10;99.90;;;;;;5058820;28;20059;-63
2021/11/25 11:33:16;;;;;;;47.95;30.52;;;6.10;99.90;;;;;;5062940;28;20043;-63
2021/11/25 11:35:42;;;;;;;49.70;30.83;;;6.10;99.90;;;;;;5061325;28;20032;-63
2021/11/25 11:38:13;;;;;;;56.47;33.92;;;6.20;99.90;;;;;;5080366;28;20032;-64
2021/11/25 11:40:39;;;;;;;51.95;30.85;;;6.20;99.90;;;;;;5078769;28;20024;-63
2021/11/25 11:43:05;;;;;;;46.95;29.40;;;6.20;99.90;;;;;;5088164;28;20085;-63
2021/11/25 11:45:34;;;;;;;40.83;25.70;;;6.30;99.90;;;;;;5075496;28;20069;-63
2021/11/25 11:48:03;;;;;;;38.70;25.55;;;6.40;99.90;;;;;;5083731;28;20079;-63
2021/11/25 11:50:32;;;;;;;41.60;24.87;;;6.40;99.90;;;;;;5083280;28;20032;-63
2021/11/25 11:53:04;;;;;;;40.30;25.00;;;6.50;99.90;;;;;;5071609;28;20048;-63
2021/11/25 11:55:40;;;;;;;38.95;25.23;;;6.50;99.90;;;;;;5071027;28;20044;-63
2021/11/25 11:58:22;;;;;;;36.45;22.40;;;6.60;99.90;;;;;;5070078;28;20052;-63
2021/11/25 12:00:53;;;;;;;47.45;28.30;;;6.70;99.90;;;;;;5063115;28;20032;-63
2021/11/25 12:03:30;;;;;;;46.45;28.00;;;6.70;99.90;;;;;;5064556;28;20025;-63
2021/11/25 12:06:01;;;;;;;48.50;29.02;;;6.70;99.90;;;;;;5065815;28;20060;-63
2021/11/25 12:08:43;;;;;;;47.65;28.83;;;6.70;99.90;;;;;;5071419;28;20017;-64
2021/11/25 12:11:11;;;;;;;48.88;29.40;;;6.80;99.90;;;;;;5073380;28;20052;-64
2021/11/25 12:13:36;;;;;;;44.78;27.33;;;6.90;99.90;;;;;;5072770;28;20486;-63
2021/11/25 12:16:20;;;;;;;40.65;25.63;;;7.00;99.90;;;;;;5071946;28;20021;-63
2021/11/25 12:18:54;;;;;;;39.50;24.05;;;7.10;99.90;;;;;;5070123;28;20089;-63
2021/11/25 12:21:47;;;;;;;39.28;24.70;;;7.20;99.90;;;;;;5072042;28;20032;-63
2021/11/25 12:24:31;;;;;;;47.08;28.48;;;7.30;99.90;;;;;;5054667;28;20032;-63
2021/11/25 12:27:21;;;;;;;43.53;26.52;;;7.40;99.90;;;;;;5063612;28;20555;-64
2021/11/25 12:30:04;;;;;;;41.25;25.45;;;7.50;99.90;;;;;;5068269;28;20017;-63
2021/11/25 12:35:01;;;;;;;43.78;27.48;;;7.60;99.90;;;;;;5073127;28;20043;-63
2021/11/25 12:37:51;;;;;;;46.00;26.83;;;7.60;99.90;;;;;;5069761;28;20138;-63
2021/11/25 12:40:38;;;;;;;;;;;;;;;;;;;;;
2021/11/25 12:43:13;;;;;;;48.47;29.60;;;7.70;99.90;;;;;;5069360;28;20110;-63
2021/11/25 12:45:49;;;;;;;41.97;26.27;;;7.60;99.90;;;;;;5068605;28;20021;-63
2021/11/25 12:48:28;;;;;;;51.42;30.55;;;7.70;99.90;;;;;;5070570;28;20051;-63
2021/11/25 12:51:04;;;;;;;49.00;29.05;;;7.70;99.90;;;;;;5073199;28;20476;-63
2021/11/25 12:54:13;;;;;;;;;;;;;;;;;;;;;
2021/11/25 12:56:41;;;;;;;51.38;30.52;;;7.70;99.90;;;;;;5081258;28;20028;-63
2021/11/25 12:59:13;;;;;;;46.15;28.77;;;7.70;99.90;;;;;;5090684;28;20042;-63
2021/11/25 13:02:29;;;;;;;44.30;26.63;;;7.80;99.90;;;;;;5078895;28;20020;-63
2021/11/25 13:05:10;;;;;;;35.75;23.15;;;8.70;99.90;;;;;;5077568;28;20047;-64
2021/11/25 13:07:47;;;;;;;32.67;20.08;;;10.50;99.90;;;;;;5062417;28;20053;-64
2021/11/25 13:10:56;;;;;;;31.25;20.20;;;11.40;99.90;;;;;;5084816;28;20503;-64
2021/11/25 13:13:23;;;;;;;32.65;19.60;;;11.40;99.70;;;;;;5089935;28;20036;-64
2021/11/25 13:16:10;;;;;;;36.65;22.77;;;11.00;99.90;;;;;;5078820;28;20031;-64
2021/11/25 13:19:00;;;;;;;28.55;20.35;;;10.70;99.90;;;;;;5079553;28;20035;-63
2021/11/25 13:21:33;;;;;;;;;;;10.40;99.90;;;;;;5077446;28;20024;-63
2021/11/25 13:24:03;;;;;;;38.38;22.58;;;10.10;99.90;;;;;;5086450;28;20284;-63